sensor_id;sensor_type;location;lat;lon;timestamp;P1;durP1;ratioP1;P2;durP2;ratioP2
19191;SDS011;9728;48.194;16.346;2023-03-04T00:01:37;15.73;;;8.13;;
19191;SDS011;9728;48.194;16.346;2023-03-04T00:06:42;14.13;;;8.17;;
19191;SDS011;9728;48.194;16.346;2023-03-04T00:11:45;13.90;;;7.93;;
19191;SDS011;9728;48.194;16.346;2023-03-04T00:16:48;14.87;;;8.03;;
19191;SDS011;9728;48.194;16.346;2023-03-04T00:21:54;13.53;;;7.73;;
19191;SDS011;9728;48.194;16.346;2023-03-04T00:26:57;14.07;;;7.67;;
19191;SDS011;9728;48.194;16.346;2023-03-04T00:32:01;16.17;;;7.80;;
19191;SDS011;9728;48.194;16.346;2023-03-04T00:37:06;13.53;;;7.47;;
19191;SDS011;9728;48.194;16.346;2023-03-04T00:42:09;14.30;;;7.33;;
19191;SDS011;9728;48.194;16.346;2023-03-04T00:47:13;15.93;;;7.83;;
19191;SDS011;9728;48.194;16.346;2023-03-04T00:52:20;16.63;;;9.00;;
19191;SDS011;9728;48.194;16.346;2023-03-04T00:57:23;15.50;;;7.90;;
19191;SDS011;9728;48.194;16.346;2023-03-04T01:02:27;17.33;;;8.57;;
19191;SDS011;9728;48.194;16.346;2023-03-04T01:07:32;12.87;;;7.57;;
19191;SDS011;9728;48.194;16.346;2023-03-04T01:12:36;14.03;;;8.73;;
19191;SDS011;9728;48.194;16.346;2023-03-04T01:17:40;14.13;;;6.97;;
19191;SDS011;9728;48.194;16.346;2023-03-04T01:22:45;13.97;;;7.83;;
19191;SDS011;9728;48.194;16.346;2023-03-04T01:27:49;16.97;;;8.80;;
19191;SDS011;9728;48.194;16.346;2023-03-04T01:32:53;15.63;;;8.17;;
19191;SDS011;9728;48.194;16.346;2023-03-04T01:37:58;16.47;;;8.23;;
19191;SDS011;9728;48.194;16.346;2023-03-04T01:43:01;14.03;;;7.77;;
19191;SDS011;9728;48.194;16.346;2023-03-04T01:48:05;17.93;;;8.60;;
19191;SDS011;9728;48.194;16.346;2023-03-04T01:53:13;15.20;;;8.37;;
19191;SDS011;9728;48.194;16.346;2023-03-04T01:58:22;13.03;;;7.87;;
19191;SDS011;9728;48.194;16.346;2023-03-04T02:03:26;12.43;;;7.13;;
19191;SDS011;9728;48.194;16.346;2023-03-04T02:08:31;13.33;;;7.03;;
19191;SDS011;9728;48.194;16.346;2023-03-04T02:13:36;13.30;;;7.60;;
19191;SDS011;9728;48.194;16.346;2023-03-04T02:18:39;13.23;;;7.23;;
19191;SDS011;9728;48.194;16.346;2023-03-04T02:23:45;11.30;;;6.50;;
19191;SDS011;9728;48.194;16.346;2023-03-04T02:28:57;9.43;;;5.73;;
19191;SDS011;9728;48.194;16.346;2023-03-04T02:34:03;10.63;;;5.77;;
19191;SDS011;9728;48.194;16.346;2023-03-04T02:39:10;9.23;;;5.27;;
19191;SDS011;9728;48.194;16.346;2023-03-04T02:44:20;9.53;;;5.63;;
19191;SDS011;9728;48.194;16.346;2023-03-04T02:49:26;9.07;;;4.53;;
19191;SDS011;9728;48.194;16.346;2023-03-04T02:54:31;8.27;;;4.93;;
19191;SDS011;9728;48.194;16.346;2023-03-04T02:59:37;6.83;;;4.33;;
19191;SDS011;9728;48.194;16.346;2023-03-04T03:04:44;8.97;;;4.67;;
19191;SDS011;9728;48.194;16.346;2023-03-04T03:09:51;7.87;;;4.37;;
19191;SDS011;9728;48.194;16.346;2023-03-04T03:14:56;8.80;;;4.90;;
19191;SDS011;9728;48.194;16.346;2023-03-04T03:19:59;7.43;;;4.83;;
19191;SDS011;9728;48.194;16.346;2023-03-04T03:25:03;10.80;;;5.67;;
19191;SDS011;9728;48.194;16.346;2023-03-04T03:30:14;12.10;;;6.30;;
19191;SDS011;9728;48.194;16.346;2023-03-04T03:35:18;10.63;;;5.83;;
19191;SDS011;9728;48.194;16.346;2023-03-04T03:40:22;14.97;;;7.83;;
19191;SDS011;9728;48.194;16.346;2023-03-04T03:45:26;17.07;;;9.43;;
19191;SDS011;9728;48.194;16.346;2023-03-04T03:50:30;16.43;;;9.10;;
19191;SDS011;9728;48.194;16.346;2023-03-04T03:55:33;19.43;;;9.57;;
19191;SDS011;9728;48.194;16.346;2023-03-04T04:00:38;17.77;;;9.40;;
19191;SDS011;9728;48.194;16.346;2023-03-04T04:05:42;17.63;;;9.13;;
19191;SDS011;9728;48.194;16.346;2023-03-04T04:10:45;15.20;;;8.30;;
19191;SDS011;9728;48.194;16.346;2023-03-04T04:15:51;19.67;;;9.43;;
19191;SDS011;9728;48.194;16.346;2023-03-04T04:20:55;18.37;;;9.07;;
19191;SDS011;9728;48.194;16.346;2023-03-04T04:25:59;19.30;;;9.63;;
19191;SDS011;9728;48.194;16.346;2023-03-04T04:31:07;17.27;;;8.97;;
19191;SDS011;9728;48.194;16.346;2023-03-04T04:36:12;18.37;;;9.40;;
19191;SDS011;9728;48.194;16.346;2023-03-04T04:41:17;17.67;;;9.30;;
19191;SDS011;9728;48.194;16.346;2023-03-04T04:46:25;16.47;;;9.27;;
19191;SDS011;9728;48.194;16.346;2023-03-04T04:51:28;18.47;;;9.13;;
19191;SDS011;9728;48.194;16.346;2023-03-04T04:56:32;21.97;;;10.00;;
19191;SDS011;9728;48.194;16.346;2023-03-04T05:01:37;23.77;;;10.70;;
19191;SDS011;9728;48.194;16.346;2023-03-04T05:06:41;18.47;;;9.33;;
19191;SDS011;9728;48.194;16.346;2023-03-04T05:11:45;17.67;;;9.13;;
19191;SDS011;9728;48.194;16.346;2023-03-04T05:16:50;21.40;;;9.83;;
19191;SDS011;9728;48.194;16.346;2023-03-04T05:21:54;22.17;;;9.93;;
19191;SDS011;9728;48.194;16.346;2023-03-04T05:26:58;17.63;;;9.30;;
19191;SDS011;9728;48.194;16.346;2023-03-04T05:32:03;18.47;;;8.27;;
19191;SDS011;9728;48.194;16.346;2023-03-04T05:37:07;19.97;;;9.53;;
19191;SDS011;9728;48.194;16.346;2023-03-04T05:42:13;20.27;;;9.03;;
19191;SDS011;9728;48.194;16.346;2023-03-04T05:47:19;19.00;;;9.07;;
19191;SDS011;9728;48.194;16.346;2023-03-04T05:52:22;16.13;;;8.17;;
19191;SDS011;9728;48.194;16.346;2023-03-04T05:57:26;16.37;;;8.43;;
19191;SDS011;9728;48.194;16.346;2023-03-04T06:02:34;19.27;;;9.97;;
19191;SDS011;9728;48.194;16.346;2023-03-04T06:07:37;18.23;;;8.80;;
19191;SDS011;9728;48.194;16.346;2023-03-04T06:12:43;16.87;;;8.93;;
19191;SDS011;9728;48.194;16.346;2023-03-04T06:17:48;20.23;;;9.90;;
19191;SDS011;9728;48.194;16.346;2023-03-04T06:22:52;21.67;;;9.20;;
19191;SDS011;9728;48.194;16.346;2023-03-04T06:27:55;19.43;;;9.63;;
19191;SDS011;9728;48.194;16.346;2023-03-04T06:33:00;20.20;;;9.70;;
19191;SDS011;9728;48.194;16.346;2023-03-04T06:38:04;19.13;;;10.27;;
19191;SDS011;9728;48.194;16.346;2023-03-04T06:43:07;21.97;;;10.00;;
19191;SDS011;9728;48.194;16.346;2023-03-04T06:48:12;19.97;;;9.63;;
19191;SDS011;9728;48.194;16.346;2023-03-04T06:53:16;19.30;;;9.53;;
19191;SDS011;9728;48.194;16.346;2023-03-04T06:58:19;21.60;;;10.77;;
19191;SDS011;9728;48.194;16.346;2023-03-04T07:03:24;19.07;;;9.60;;
19191;SDS011;9728;48.194;16.346;2023-03-04T07:08:27;17.83;;;9.83;;
19191;SDS011;9728;48.194;16.346;2023-03-04T07:13:31;22.40;;;10.13;;
19191;SDS011;9728;48.194;16.346;2023-03-04T07:18:40;17.93;;;9.20;;
19191;SDS011;9728;48.194;16.346;2023-03-04T07:23:44;17.97;;;10.07;;
19191;SDS011;9728;48.194;16.346;2023-03-04T07:28:48;22.23;;;10.20;;
19191;SDS011;9728;48.194;16.346;2023-03-04T07:33:54;20.03;;;10.27;;
19191;SDS011;9728;48.194;16.346;2023-03-04T07:39:00;21.87;;;11.17;;
19191;SDS011;9728;48.194;16.346;2023-03-04T07:44:05;25.80;;;12.57;;
19191;SDS011;9728;48.194;16.346;2023-03-04T07:49:13;24.63;;;11.77;;
19191;SDS011;9728;48.194;16.346;2023-03-04T07:54:17;26.60;;;12.43;;
19191;SDS011;9728;48.194;16.346;2023-03-04T07:59:20;24.30;;;12.27;;
19191;SDS011;9728;48.194;16.346;2023-03-04T08:04:25;23.53;;;12.23;;
19191;SDS011;9728;48.194;16.346;2023-03-04T08:09:28;20.37;;;10.97;;
19191;SDS011;9728;48.194;16.346;2023-03-04T08:14:32;26.97;;;11.97;;
19191;SDS011;9728;48.194;16.346;2023-03-04T08:19:38;17.45;;;9.45;;
19191;SDS011;9728;48.194;16.346;2023-03-04T08:24:41;22.30;;;10.63;;
19191;SDS011;9728;48.194;16.346;2023-03-04T08:29:44;20.63;;;10.85;;
19191;SDS011;9728;48.194;16.346;2023-03-04T08:34:49;18.13;;;9.27;;
19191;SDS011;9728;48.194;16.346;2023-03-04T08:39:52;20.93;;;9.10;;
19191;SDS011;9728;48.194;16.346;2023-03-04T08:44:56;19.55;;;10.43;;
19191;SDS011;9728;48.194;16.346;2023-03-04T08:50:00;18.70;;;9.20;;
19191;SDS011;9728;48.194;16.346;2023-03-04T08:55:04;20.83;;;10.87;;
19191;SDS011;9728;48.194;16.346;2023-03-04T09:00:08;19.03;;;9.23;;
19191;SDS011;9728;48.194;16.346;2023-03-04T09:05:14;18.20;;;9.57;;
19191;SDS011;9728;48.194;16.346;2023-03-04T09:10:18;18.02;;;8.85;;
19191;SDS011;9728;48.194;16.346;2023-03-04T09:15:21;17.42;;;8.75;;
19191;SDS011;9728;48.194;16.346;2023-03-04T09:20:26;18.80;;;8.27;;
19191;SDS011;9728;48.194;16.346;2023-03-04T09:25:29;14.90;;;8.20;;
19191;SDS011;9728;48.194;16.346;2023-03-04T09:30:33;12.73;;;7.38;;
19191;SDS011;9728;48.194;16.346;2023-03-04T09:35:40;14.80;;;7.70;;
19191;SDS011;9728;48.194;16.346;2023-03-04T09:40:44;10.77;;;5.25;;
19191;SDS011;9728;48.194;16.346;2023-03-04T09:45:50;12.18;;;5.85;;
19191;SDS011;9728;48.194;16.346;2023-03-04T09:51:03;9.68;;;5.53;;
19191;SDS011;9728;48.194;16.346;2023-03-04T09:56:19;9.45;;;4.97;;
19191;SDS011;9728;48.194;16.346;2023-03-04T10:01:28;10.15;;;5.03;;
19191;SDS011;9728;48.194;16.346;2023-03-04T10:06:37;9.82;;;5.32;;
19191;SDS011;9728;48.194;16.346;2023-03-04T10:11:43;10.23;;;4.47;;
19191;SDS011;9728;48.194;16.346;2023-03-04T10:16:50;8.52;;;4.90;;
19191;SDS011;9728;48.194;16.346;2023-03-04T10:21:59;10.35;;;5.60;;
19191;SDS011;9728;48.194;16.346;2023-03-04T10:27:14;8.75;;;4.80;;
19191;SDS011;9728;48.194;16.346;2023-03-04T10:32:20;6.97;;;3.90;;
19191;SDS011;9728;48.194;16.346;2023-03-04T10:37:25;8.95;;;4.30;;
19191;SDS011;9728;48.194;16.346;2023-03-04T10:42:47;8.15;;;4.35;;
19191;SDS011;9728;48.194;16.346;2023-03-04T10:47:51;6.60;;;4.10;;
19191;SDS011;9728;48.194;16.346;2023-03-04T10:52:57;7.90;;;4.40;;
19191;SDS011;9728;48.194;16.346;2023-03-04T10:58:01;9.52;;;4.72;;
19191;SDS011;9728;48.194;16.346;2023-03-04T11:03:20;8.13;;;4.70;;
19191;SDS011;9728;48.194;16.346;2023-03-04T11:08:31;8.73;;;4.65;;
19191;SDS011;9728;48.194;16.346;2023-03-04T11:13:34;8.70;;;4.22;;
19191;SDS011;9728;48.194;16.346;2023-03-04T11:18:39;10.25;;;4.70;;
19191;SDS011;9728;48.194;16.346;2023-03-04T11:23:46;8.13;;;4.55;;
19191;SDS011;9728;48.194;16.346;2023-03-04T11:28:52;7.63;;;4.30;;
19191;SDS011;9728;48.194;16.346;2023-03-04T11:34:01;6.97;;;4.50;;
19191;SDS011;9728;48.194;16.346;2023-03-04T11:39:15;7.50;;;3.88;;
19191;SDS011;9728;48.194;16.346;2023-03-04T11:44:23;7.15;;;4.47;;
19191;SDS011;9728;48.194;16.346;2023-03-04T11:49:31;7.82;;;4.35;;
19191;SDS011;9728;48.194;16.346;2023-03-04T11:54:54;5.63;;;3.88;;
19191;SDS011;9728;48.194;16.346;2023-03-04T12:00:29;5.78;;;3.83;;
19191;SDS011;9728;48.194;16.346;2023-03-04T12:05:42;7.15;;;3.83;;
19191;SDS011;9728;48.194;16.346;2023-03-04T12:10:57;6.05;;;3.85;;
19191;SDS011;9728;48.194;16.346;2023-03-04T12:16:18;7.60;;;3.70;;
19191;SDS011;9728;48.194;16.346;2023-03-04T12:21:35;5.50;;;3.58;;
19191;SDS011;9728;48.194;16.346;2023-03-04T12:26:55;8.20;;;3.92;;
19191;SDS011;9728;48.194;16.346;2023-03-04T12:32:06;6.68;;;3.65;;
19191;SDS011;9728;48.194;16.346;2023-03-04T12:37:22;6.43;;;3.88;;
19191;SDS011;9728;48.194;16.346;2023-03-04T12:42:39;7.05;;;4.00;;
19191;SDS011;9728;48.194;16.346;2023-03-04T12:47:54;8.32;;;3.72;;
19191;SDS011;9728;48.194;16.346;2023-03-04T12:53:10;6.40;;;4.38;;
19191;SDS011;9728;48.194;16.346;2023-03-04T12:58:24;7.95;;;4.50;;
19191;SDS011;9728;48.194;16.346;2023-03-04T13:03:32;11.07;;;5.90;;
19191;SDS011;9728;48.194;16.346;2023-03-04T13:08:47;6.22;;;4.05;;
19191;SDS011;9728;48.194;16.346;2023-03-04T13:14:04;8.68;;;5.32;;
19191;SDS011;9728;48.194;16.346;2023-03-04T13:24:46;7.07;;;4.50;;
19191;SDS011;9728;48.194;16.346;2023-03-04T13:29:52;7.35;;;4.85;;
19191;SDS011;9728;48.194;16.346;2023-03-04T13:34:56;7.80;;;4.60;;
19191;SDS011;9728;48.194;16.346;2023-03-04T13:45:34;8.35;;;4.60;;
19191;SDS011;9728;48.194;16.346;2023-03-04T13:50:40;8.05;;;4.50;;
19191;SDS011;9728;48.194;16.346;2023-03-04T14:01:33;8.90;;;4.25;;
19191;SDS011;9728;48.194;16.346;2023-03-04T14:06:40;8.05;;;3.95;;
19191;SDS011;9728;48.194;16.346;2023-03-04T14:11:45;8.60;;;4.93;;
19191;SDS011;9728;48.194;16.346;2023-03-04T14:16:52;10.13;;;5.07;;
19191;SDS011;9728;48.194;16.346;2023-03-04T14:21:59;8.63;;;4.95;;
19191;SDS011;9728;48.194;16.346;2023-03-04T14:27:05;7.32;;;4.45;;
19191;SDS011;9728;48.194;16.346;2023-03-04T14:32:14;8.68;;;4.65;;
19191;SDS011;9728;48.194;16.346;2023-03-04T14:37:19;6.80;;;4.28;;
19191;SDS011;9728;48.194;16.346;2023-03-04T14:42:24;8.35;;;4.63;;
19191;SDS011;9728;48.194;16.346;2023-03-04T14:47:35;6.03;;;4.03;;
19191;SDS011;9728;48.194;16.346;2023-03-04T14:52:42;6.97;;;3.92;;
19191;SDS011;9728;48.194;16.346;2023-03-04T14:57:48;7.20;;;4.25;;
19191;SDS011;9728;48.194;16.346;2023-03-04T15:03:01;7.88;;;4.28;;
19191;SDS011;9728;48.194;16.346;2023-03-04T15:08:17;10.45;;;5.60;;
19191;SDS011;9728;48.194;16.346;2023-03-04T15:18:56;8.80;;;5.40;;
19191;SDS011;9728;48.194;16.346;2023-03-04T15:24:05;9.88;;;5.72;;
19191;SDS011;9728;48.194;16.346;2023-03-04T15:29:13;9.50;;;5.50;;
19191;SDS011;9728;48.194;16.346;2023-03-04T15:34:22;12.32;;;6.70;;
19191;SDS011;9728;48.194;16.346;2023-03-04T15:39:28;12.15;;;6.18;;
19191;SDS011;9728;48.194;16.346;2023-03-04T15:44:32;10.00;;;6.13;;
19191;SDS011;9728;48.194;16.346;2023-03-04T15:49:38;11.23;;;5.82;;
19191;SDS011;9728;48.194;16.346;2023-03-04T15:54:42;9.45;;;6.10;;
19191;SDS011;9728;48.194;16.346;2023-03-04T15:59:47;9.90;;;5.85;;
19191;SDS011;9728;48.194;16.346;2023-03-04T16:04:54;9.80;;;5.75;;
19191;SDS011;9728;48.194;16.346;2023-03-04T16:09:59;8.75;;;5.05;;
19191;SDS011;9728;48.194;16.346;2023-03-04T16:15:11;8.43;;;4.95;;
19191;SDS011;9728;48.194;16.346;2023-03-04T16:20:20;9.23;;;5.28;;
19191;SDS011;9728;48.194;16.346;2023-03-04T16:25:25;9.90;;;5.80;;
19191;SDS011;9728;48.194;16.346;2023-03-04T16:30:29;7.28;;;4.60;;
19191;SDS011;9728;48.194;16.346;2023-03-04T16:35:36;8.15;;;5.07;;
19191;SDS011;9728;48.194;16.346;2023-03-04T16:40:40;7.10;;;4.45;;
19191;SDS011;9728;48.194;16.346;2023-03-04T16:45:44;7.20;;;4.78;;
19191;SDS011;9728;48.194;16.346;2023-03-04T16:50:50;7.97;;;4.80;;
19191;SDS011;9728;48.194;16.346;2023-03-04T16:55:56;7.40;;;4.77;;
19191;SDS011;9728;48.194;16.346;2023-03-04T17:01:02;7.57;;;5.00;;
19191;SDS011;9728;48.194;16.346;2023-03-04T17:06:09;8.47;;;5.03;;
19191;SDS011;9728;48.194;16.346;2023-03-04T17:11:15;7.60;;;4.93;;
19191;SDS011;9728;48.194;16.346;2023-03-04T17:16:20;8.13;;;4.73;;
19191;SDS011;9728;48.194;16.346;2023-03-04T17:21:27;7.80;;;4.90;;
19191;SDS011;9728;48.194;16.346;2023-03-04T17:26:30;7.25;;;4.68;;
19191;SDS011;9728;48.194;16.346;2023-03-04T17:31:35;7.57;;;4.63;;
19191;SDS011;9728;48.194;16.346;2023-03-04T17:36:42;8.77;;;4.67;;
19191;SDS011;9728;48.194;16.346;2023-03-04T17:41:48;6.83;;;4.13;;
19191;SDS011;9728;48.194;16.346;2023-03-04T17:46:53;8.13;;;5.10;;
19191;SDS011;9728;48.194;16.346;2023-03-04T17:52:01;7.00;;;3.90;;
19191;SDS011;9728;48.194;16.346;2023-03-04T17:57:06;7.73;;;4.57;;
19191;SDS011;9728;48.194;16.346;2023-03-04T18:02:13;6.00;;;3.60;;
19191;SDS011;9728;48.194;16.346;2023-03-04T18:07:22;4.40;;;3.20;;
19191;SDS011;9728;48.194;16.346;2023-03-04T18:12:28;6.93;;;4.00;;
19191;SDS011;9728;48.194;16.346;2023-03-04T18:17:34;7.20;;;3.83;;
19191;SDS011;9728;48.194;16.346;2023-03-04T18:22:42;6.13;;;3.83;;
19191;SDS011;9728;48.194;16.346;2023-03-04T18:27:47;5.73;;;3.60;;
19191;SDS011;9728;48.194;16.346;2023-03-04T18:32:52;6.90;;;4.40;;
19191;SDS011;9728;48.194;16.346;2023-03-04T18:38:00;6.90;;;4.37;;
19191;SDS011;9728;48.194;16.346;2023-03-04T18:43:06;7.43;;;4.40;;
19191;SDS011;9728;48.194;16.346;2023-03-04T18:48:11;6.20;;;3.90;;
19191;SDS011;9728;48.194;16.346;2023-03-04T18:53:26;8.20;;;4.27;;
19191;SDS011;9728;48.194;16.346;2023-03-04T18:58:34;7.37;;;4.53;;
19191;SDS011;9728;48.194;16.346;2023-03-04T19:03:41;7.00;;;3.80;;
19191;SDS011;9728;48.194;16.346;2023-03-04T19:08:50;7.20;;;4.13;;
19191;SDS011;9728;48.194;16.346;2023-03-04T19:13:56;6.47;;;4.13;;
19191;SDS011;9728;48.194;16.346;2023-03-04T19:19:02;6.57;;;3.80;;
19191;SDS011;9728;48.194;16.346;2023-03-04T19:24:10;5.93;;;3.43;;
19191;SDS011;9728;48.194;16.346;2023-03-04T19:29:16;5.20;;;3.47;;
19191;SDS011;9728;48.194;16.346;2023-03-04T19:34:21;6.37;;;3.20;;
19191;SDS011;9728;48.194;16.346;2023-03-04T19:39:28;4.43;;;3.10;;
19191;SDS011;9728;48.194;16.346;2023-03-04T19:44:34;4.57;;;3.43;;
19191;SDS011;9728;48.194;16.346;2023-03-04T19:49:40;4.67;;;2.80;;
19191;SDS011;9728;48.194;16.346;2023-03-04T19:54:46;4.93;;;3.30;;
19191;SDS011;9728;48.194;16.346;2023-03-04T19:59:51;4.77;;;2.93;;
19191;SDS011;9728;48.194;16.346;2023-03-04T20:04:57;5.73;;;3.00;;
19191;SDS011;9728;48.194;16.346;2023-03-04T20:10:04;4.60;;;2.93;;
19191;SDS011;9728;48.194;16.346;2023-03-04T20:15:11;6.13;;;3.30;;
19191;SDS011;9728;48.194;16.346;2023-03-04T20:20:16;4.80;;;2.70;;
19191;SDS011;9728;48.194;16.346;2023-03-04T20:25:23;3.80;;;2.67;;
19191;SDS011;9728;48.194;16.346;2023-03-04T20:30:30;5.70;;;3.30;;
19191;SDS011;9728;48.194;16.346;2023-03-04T20:35:34;3.93;;;2.20;;
19191;SDS011;9728;48.194;16.346;2023-03-04T20:40:43;4.00;;;2.70;;
19191;SDS011;9728;48.194;16.346;2023-03-04T20:45:47;3.00;;;2.17;;
19191;SDS011;9728;48.194;16.346;2023-03-04T20:50:52;3.73;;;2.57;;
19191;SDS011;9728;48.194;16.346;2023-03-04T20:56:02;3.20;;;2.17;;
19191;SDS011;9728;48.194;16.346;2023-03-04T21:01:08;3.90;;;2.53;;
19191;SDS011;9728;48.194;16.346;2023-03-04T21:06:12;4.93;;;2.80;;
19191;SDS011;9728;48.194;16.346;2023-03-04T21:11:18;5.30;;;3.27;;
19191;SDS011;9728;48.194;16.346;2023-03-04T21:16:24;5.13;;;3.40;;
19191;SDS011;9728;48.194;16.346;2023-03-04T21:21:31;5.90;;;3.57;;
19191;SDS011;9728;48.194;16.346;2023-03-04T21:26:39;6.63;;;3.07;;
19191;SDS011;9728;48.194;16.346;2023-03-04T21:31:47;7.93;;;4.30;;
19191;SDS011;9728;48.194;16.346;2023-03-04T21:36:52;6.97;;;3.80;;
19191;SDS011;9728;48.194;16.346;2023-03-04T21:41:59;8.93;;;3.80;;
19191;SDS011;9728;48.194;16.346;2023-03-04T21:47:02;6.50;;;3.77;;
19191;SDS011;9728;48.194;16.346;2023-03-04T21:52:07;6.23;;;3.40;;
19191;SDS011;9728;48.194;16.346;2023-03-04T21:57:13;5.87;;;3.37;;
19191;SDS011;9728;48.194;16.346;2023-03-04T22:02:19;6.33;;;3.57;;
19191;SDS011;9728;48.194;16.346;2023-03-04T22:07:24;6.23;;;3.77;;
19191;SDS011;9728;48.194;16.346;2023-03-04T22:12:29;6.93;;;3.63;;
19191;SDS011;9728;48.194;16.346;2023-03-04T22:17:33;6.00;;;3.27;;
19191;SDS011;9728;48.194;16.346;2023-03-04T22:22:37;7.37;;;4.27;;
19191;SDS011;9728;48.194;16.346;2023-03-04T22:27:42;6.07;;;3.50;;
19191;SDS011;9728;48.194;16.346;2023-03-04T22:32:46;7.17;;;4.40;;
19191;SDS011;9728;48.194;16.346;2023-03-04T22:37:50;5.40;;;3.33;;
19191;SDS011;9728;48.194;16.346;2023-03-04T22:42:55;7.80;;;4.17;;
19191;SDS011;9728;48.194;16.346;2023-03-04T22:47:58;6.37;;;4.03;;
19191;SDS011;9728;48.194;16.346;2023-03-04T22:53:05;9.13;;;5.37;;
19191;SDS011;9728;48.194;16.346;2023-03-04T22:58:12;5.87;;;3.63;;
19191;SDS011;9728;48.194;16.346;2023-03-04T23:03:17;7.10;;;3.93;;
19191;SDS011;9728;48.194;16.346;2023-03-04T23:08:21;9.40;;;4.73;;
19191;SDS011;9728;48.194;16.346;2023-03-04T23:13:26;7.27;;;4.40;;
19191;SDS011;9728;48.194;16.346;2023-03-04T23:18:30;6.73;;;3.87;;
19191;SDS011;9728;48.194;16.346;2023-03-04T23:23:35;5.60;;;3.50;;
19191;SDS011;9728;48.194;16.346;2023-03-04T23:28:40;6.60;;;3.77;;
19191;SDS011;9728;48.194;16.346;2023-03-04T23:33:44;6.63;;;3.67;;
19191;SDS011;9728;48.194;16.346;2023-03-04T23:38:49;6.43;;;4.07;;
19191;SDS011;9728;48.194;16.346;2023-03-04T23:43:55;5.40;;;3.90;;
19191;SDS011;9728;48.194;16.346;2023-03-04T23:49:00;7.73;;;4.60;;
19191;SDS011;9728;48.194;16.346;2023-03-04T23:54:03;8.03;;;4.70;;
19191;SDS011;9728;48.194;16.346;2023-03-04T23:59:09;7.63;;;4.67;;
